Norbank — PGIS — position and weather

sailwx.info

Track history (hours):
 
Tides and Currents Weather Stations Pressure Air Temp Water Temp Dewpoint Dewpoint Depression Visibility Wind Speed Wind Dir Waves Ship Positions

Norbank

Operator: P & O Ferries

Last reported at 2018-Jun-23 04:25 UTC. Time now 2018-Jun-23 04:45 UTC.
Position N 53°27' W 003°01'.

Length 167 m; draft 5.4 m.

Type: Ship (hazmat cat A). MMSI: 246213000.

Date/timePositionNaut miles runAvg speedWind from/ knotsBaromVisibWave heightAir tempDewpointWater temp
2018-Jun-23 04:25N 53°27' W 003°01'0 0.0
2018-Jun-23 03:58N 53°27' W 003°01'0 0.8
2018-Jun-23 03:31N 53°27' W 003°01'0 0.5
2018-Jun-23 03:01N 53°27' W 003°01'5 9.5
2018-Jun-23 02:31N 53°30' W 003°06'713.3
2018-Jun-23 02:00N 53°31' W 003°18'918.6
2018-Jun-23 01:30N 53°31' W 003°33'917.9
2018-Jun-23 01:00N 53°32' W 003°48'917.5
2018-Jun-23 00:30N 53°33' W 004°03'816.7
2018-Jun-23 00:00N 53°35' W 004°16'1017.4
2018-Jun-22 23:25N 53°36' W 004°33'918.0
2018-Jun-22 22:57N 53°34' W 004°48'48 6.5
2018-Jun-22 15:31N 53°20' W 006°05'014.7
2018-Jun-22 15:30N 53°20' W 006°05'815.9
2018-Jun-22 14:59N 53°24' W 005°52'916.7
2018-Jun-22 14:28N 53°26' W 005°38'817.4
2018-Jun-22 14:00N 53°28' W 005°25'6118.3
2018-Jun-22 10:42N 53°33' W 003°43'420.4
2018-Jun-22 10:30N 53°33' W 003°37'1020.1
2018-Jun-22 10:00N 53°32' W 003°20'917.6
2018-Jun-22 09:30N 53°30' W 003°05'4 7.5
2018-Jun-22 09:00N 53°27' W 003°01'0 0.8
2018-Jun-22 08:29N 53°27' W 003°01'0 0.0
2018-Jun-22 07:58N 53°27' W 003°01'0 0.0
2018-Jun-22 07:28N 53°27' W 003°01'0 0.0
2018-Jun-22 06:55N 53°27' W 003°01'0 0.0
2018-Jun-22 06:25N 53°27' W 003°01'0 0.0
2018-Jun-22 05:57N 53°27' W 003°01'0 0.0
2018-Jun-22 05:30N 53°27' W 003°01'0 0.0
2018-Jun-22 05:00N 53°27' W 003°01'0 0.0
2018-Jun-22 04:30N 53°27' W 003°01'0 0.2
2018-Jun-22 04:00N 53°27' W 003°01'0 0.8
2018-Jun-22 03:30N 53°27' W 003°01'5 9.9
2018-Jun-22 02:57N 53°31' W 003°07'818.3
2018-Jun-22 02:31N 53°31' W 003°21'1019.7
2018-Jun-22 02:00N 53°31' W 003°38'918.1
2018-Jun-22 01:29N 53°31' W 003°53'817.2
2018-Jun-22 01:00N 53°33' W 004°07'5318.0
2018-Jun-21 22:02N 53°26' W 005°36'119.3
2018-Jun-21 21:59N 53°25' W 005°37'17 2.7
2018-Jun-21 15:41N 53°20' W 006°05'315.8
2018-Jun-21 15:29N 53°22' W 005°60'816.5
2018-Jun-21 15:00N 53°25' W 005°48'916.7
2018-Jun-21 14:29N 53°27' W 005°34'5817.9
2018-Jun-21 11:16N 53°35' W 003°58'519.7
2018-Jun-21 11:00N 53°34' W 003°49'1019.7
2018-Jun-21 10:30N 53°33' W 003°33'1019.5
2018-Jun-21 09:59N 53°32' W 003°16'816.6
2018-Jun-21 09:30N 53°28' W 003°04'2 4.0
2018-Jun-21 09:00N 53°27' W 003°01'0 0.8
2018-Jun-21 08:30N 53°27' W 003°01'0 0.0
2018-Jun-21 08:00N 53°27' W 003°01'0 0.0
2018-Jun-21 07:30N 53°27' W 003°01'0 0.0
2018-Jun-21 07:00N 53°27' W 003°01'0 0.0
2018-Jun-21 06:28N 53°27' W 003°01'0 0.0
2018-Jun-21 06:00N 53°27' W 003°01'0 0.0
2018-Jun-21 05:24N 53°27' W 003°01'0 0.0
2018-Jun-21 05:00N 53°27' W 003°01'0 0.0
2018-Jun-21 04:27N 53°27' W 003°01'0 0.7
2018-Jun-21 04:00N 53°27' W 003°01'0 0.6
2018-Jun-21 03:30N 53°27' W 003°01'815.0
2018-Jun-21 03:00N 53°31' W 003°11'919.0
2018-Jun-21 02:30N 53°31' W 003°27'917.7
2018-Jun-21 02:00N 53°31' W 003°42'918.2
2018-Jun-21 01:30N 53°33' W 003°57'1018.6
2018-Jun-21 00:59N 53°35' W 004°13'71 7.9
2018-Jun-20 15:57N 53°21' W 006°10'715.1
2018-Jun-20 15:29N 53°22' W 005°58'1018.9
2018-Jun-20 14:58N 53°26' W 005°43'1018.9
2018-Jun-20 14:27N 53°28' W 005°27'6118.7
2018-Jun-20 11:11N 53°34' W 003°45'420.3
2018-Jun-20 11:00N 53°34' W 003°39'1020.2
2018-Jun-20 10:31N 53°33' W 003°22'816.9
2018-Jun-20 10:00N 53°32' W 003°08'612.1
2018-Jun-20 09:31N 53°27' W 003°01'0 0.1
2018-Jun-20 09:00N 53°27' W 003°01'0 0.7
2018-Jun-20 08:29N 53°27' W 003°01'0 0.0
2018-Jun-20 07:59N 53°27' W 003°01'0 0.0
2018-Jun-20 07:28N 53°27' W 003°01'0 0.0
2018-Jun-20 06:55N 53°27' W 003°01'0 0.0
2018-Jun-20 06:28N 53°27' W 003°01'0 0.0
2018-Jun-20 05:58N 53°27' W 003°01'0 0.0
2018-Jun-20 05:28N 53°27' W 003°01'0 0.0
2018-Jun-20 05:00N 53°27' W 003°01'0 0.0
2018-Jun-20 04:30N 53°27' W 003°01'0 0.2
2018-Jun-20 04:00N 53°27' W 003°01'1 1.2
2018-Jun-20 03:30N 53°27' W 003°01'714.0
2018-Jun-20 03:00N 53°32' W 003°09'1019.2
2018-Jun-20 02:30N 53°31' W 003°25'918.2
2018-Jun-20 02:00N 53°31' W 003°41'918.2
2018-Jun-20 01:30N 53°33' W 003°56'2 0.1
2018-Jun-19 11:55N 53°34' W 003°57'817.7
2018-Jun-19 11:29N 53°34' W 003°44'918.2
2018-Jun-19 11:00N 53°33' W 003°30'918.2
2018-Jun-19 10:30N 53°31' W 003°14'613.0
2018-Jun-19 10:00N 53°29' W 003°04'3 5.2
2018-Jun-19 09:30N 53°27' W 003°01'0 0.8
2018-Jun-19 09:00N 53°27' W 003°01'0 0.0
2018-Jun-19 08:22N 53°27' W 003°01'0 0.0
2018-Jun-19 08:00N 53°27' W 003°01'0 0.0
2018-Jun-19 07:30N 53°27' W 003°01'0 0.0
2018-Jun-19 07:00N 53°27' W 003°01'0 0.0
2018-Jun-19 06:30N 53°27' W 003°01'0 0.0
2018-Jun-19 06:00N 53°27' W 003°01'0 0.0
2018-Jun-19 05:29N 53°27' W 003°01'0 0.0
2018-Jun-19 04:59N 53°27' W 003°01'0 0.0
2018-Jun-19 04:30N 53°27' W 003°01'0 1.0
2018-Jun-19 04:00N 53°27' W 003°01'1 2.8
2018-Jun-19 03:30N 53°28' W 003°03'714.4
2018-Jun-19 03:00N 53°31' W 003°14'815.4
2018-Jun-19 02:30N 53°31' W 003°27'815.6
2018-Jun-19 02:00N 53°30' W 003°40'713.4
2018-Jun-19 01:30N 53°32' W 003°51'612.7
2018-Jun-19 01:00N 53°33' W 004°02'713.3
2018-Jun-19 00:30N 53°34' W 004°13'6817.2
2018-Jun-18 20:32N 53°20' W 006°04'3 0.2
2018-Jun-18 03:43N 53°21' W 006°10'313.6
2018-Jun-18 03:30N 53°20' W 006°05'918.0
2018-Jun-18 03:00N 53°23' W 005°51'1018.4
2018-Jun-18 02:26N 53°27' W 005°34'6317.1
2018-Jun-17 22:45N 53°34' W 003°49'417.0
2018-Jun-17 22:30N 53°34' W 003°42'917.3
2018-Jun-17 22:00N 53°33' W 003°27'816.7
2018-Jun-17 21:30N 53°31' W 003°13'612.7
2018-Jun-17 21:00N 53°29' W 003°04'2 4.5
2018-Jun-17 20:30N 53°27' W 003°01'0 0.2
2018-Jun-17 20:00N 53°27' W 003°01'0 0.7
2018-Jun-17 19:27N 53°27' W 003°01'0 0.0
2018-Jun-17 19:00N 53°27' W 003°01'0 0.0
2018-Jun-17 18:23N 53°27' W 003°01'0 0.0
2018-Jun-17 17:59N 53°27' W 003°01'0 0.0
2018-Jun-17 17:29N 53°27' W 003°01'0 0.0
2018-Jun-17 16:59N 53°27' W 003°01'0 0.0
2018-Jun-17 16:28N 53°27' W 003°01'0 0.0
2018-Jun-17 15:58N 53°27' W 003°01'0 0.0
2018-Jun-17 15:28N 53°27' W 003°01'0 0.0
2018-Jun-17 14:55N 53°27' W 003°01'0 0.0
2018-Jun-17 14:28N 53°27' W 003°01'0 0.0
2018-Jun-17 14:00N 53°27' W 003°01'0 0.0
2018-Jun-17 13:30N 53°27' W 003°01'0 0.0
2018-Jun-17 12:57N 53°27' W 003°01'0 0.0
2018-Jun-17 12:30N 53°27' W 003°01'0 0.0
2018-Jun-17 12:00N 53°27' W 003°01'0 0.0
2018-Jun-17 11:29N 53°27' W 003°01'0 0.0
2018-Jun-17 10:59N 53°27' W 003°01'0 0.0
2018-Jun-17 10:29N 53°27' W 003°01'0 0.0
2018-Jun-17 09:59N 53°27' W 003°01'0 0.0
2018-Jun-17 09:28N 53°27' W 003°01'0 0.0
2018-Jun-17 08:52N 53°27' W 003°01'0 0.0
2018-Jun-17 08:28N 53°27' W 003°01'0 0.0
2018-Jun-17 07:58N 53°27' W 003°01'0 0.0
2018-Jun-17 07:25N 53°27' W 003°01'0 0.0
2018-Jun-17 07:00N 53°27' W 003°01'0 0.0
2018-Jun-17 06:27N 53°27' W 003°01'0 0.0
2018-Jun-17 06:00N 53°27' W 003°01'0 0.0
2018-Jun-17 05:30N 53°27' W 003°01'0 0.0
2018-Jun-17 05:00N 53°27' W 003°01'0 0.9
2018-Jun-17 04:30N 53°27' W 003°01'2 4.4
2018-Jun-17 04:00N 53°28' W 003°04'713.1
2018-Jun-17 03:30N 53°31' W 003°14'816.2
2018-Jun-17 03:00N 53°31' W 003°28'815.3
2018-Jun-17 02:30N 53°31' W 003°40'815.6
2018-Jun-17 02:00N 53°32' W 003°53'815.6
2018-Jun-17 01:30N 53°33' W 004°06'5416.2
2018-Jun-16 22:09N 53°26' W 005°37'317.8
2018-Jun-16 21:58N 53°25' W 005°42'1117.8
2018-Jun-16 21:21N 53°21' W 005°59'1 0.2
2018-Jun-16 15:35N 53°21' W 006°02'8218.3
2018-Jun-16 11:08N 53°34' W 003°46'217.6
2018-Jun-16 11:00N 53°34' W 003°43'817.2
2018-Jun-16 10:30N 53°33' W 003°28'917.4
2018-Jun-16 10:00N 53°31' W 003°14'713.9
2018-Jun-16 09:30N 53°28' W 003°03'2 3.6
2018-Jun-16 09:00N 53°27' W 003°01'0 0.7
2018-Jun-16 08:30N 53°27' W 003°01'0 0.3
2018-Jun-16 08:00N 53°27' W 003°01'0 0.0
2018-Jun-16 07:30N 53°27' W 003°01'0 0.0
2018-Jun-16 07:00N 53°27' W 003°01'0 0.0
2018-Jun-16 06:30N 53°27' W 003°01'0 0.0
2018-Jun-16 06:00N 53°27' W 003°01'0 0.0
2018-Jun-16 05:29N 53°27' W 003°01'0 0.0
2018-Jun-16 04:56N 53°27' W 003°01'0 0.0
2018-Jun-16 04:29N 53°27' W 003°01'0 0.9
2018-Jun-16 04:00N 53°27' W 003°01'3 5.5
2018-Jun-16 03:30N 53°29' W 003°05'613.2
2018-Jun-16 03:00N 53°31' W 003°15'816.5
2018-Jun-16 02:30N 53°31' W 003°28'815.2
2018-Jun-16 02:01N 53°31' W 003°41'816.3
2018-Jun-16 01:30N 53°32' W 003°55'6017.4
2018-Jun-15 22:02N 53°23' W 005°35'819.5
2018-Jun-15 21:36N 53°21' W 005°49'519.1
2018-Jun-15 21:21N 53°20' W 005°57'8 1.5
2018-Jun-15 16:02N 53°21' W 006°10'312.4
2018-Jun-15 15:47N 53°20' W 006°05'516.2
2018-Jun-15 15:28N 53°23' W 005°57'918.3
2018-Jun-15 15:00N 53°25' W 005°43'1018.7
2018-Jun-15 14:29N 53°28' W 005°28'6219.3
2018-Jun-15 11:15N 53°34' W 003°43'418.2
2018-Jun-15 11:01N 53°33' W 003°36'918.1
2018-Jun-15 10:30N 53°32' W 003°21'917.1
2018-Jun-15 10:00N 53°31' W 003°06'510.2
2018-Jun-15 09:30N 53°27' W 003°01'0 0.0
2018-Jun-15 09:00N 53°27' W 003°01'0 0.8
2018-Jun-15 08:29N 53°27' W 003°01'0 0.0
2018-Jun-15 07:59N 53°27' W 003°01'0 0.0
2018-Jun-15 07:29N 53°27' W 003°01'0 0.0
2018-Jun-15 06:59N 53°27' W 003°01'0 0.0
2018-Jun-15 06:22N 53°27' W 003°01'0 0.0
2018-Jun-15 05:58N 53°27' W 003°01'0 0.0
2018-Jun-15 05:28N 53°27' W 003°01'0 0.0
2018-Jun-15 04:58N 53°27' W 003°01'0 0.0
2018-Jun-15 04:30N 53°27' W 003°01'0 0.9
2018-Jun-15 04:00N 53°27' W 003°01'2 3.1
2018-Jun-15 03:30N 53°28' W 003°03'612.4
2018-Jun-15 03:00N 53°31' W 003°12'815.5
2018-Jun-15 02:30N 53°31' W 003°25'816.0
2018-Jun-15 02:00N 53°31' W 003°39'816.2
2018-Jun-15 01:30N 53°32' W 003°52'816.5
2018-Jun-15 01:00N 53°33' W 004°06'72 7.8
2018-Jun-14 15:43N 53°20' W 006°05'418.0
2018-Jun-14 15:30N 53°22' W 005°58'1019.1
2018-Jun-14 15:00N 53°25' W 005°43'1019.3
2018-Jun-14 14:29N 53°28' W 005°27'6220.1
2018-Jun-14 11:24N 53°34' W 003°43'818.4
2018-Jun-14 10:57N 53°33' W 003°29'817.9
2018-Jun-14 10:30N 53°31' W 003°16'715.0
2018-Jun-14 10:00N 53°29' W 003°05'3 5.5
2018-Jun-14 09:30N 53°27' W 003°01'0 0.9
2018-Jun-14 09:00N 53°27' W 003°01'0 0.0
2018-Jun-14 08:13N 53°27' W 003°01'0 0.0
2018-Jun-14 07:58N 53°27' W 003°01'0 0.0
2018-Jun-14 07:28N 53°27' W 003°01'0 0.0
2018-Jun-14 07:00N 53°27' W 003°01'0 0.0
2018-Jun-14 06:27N 53°27' W 003°01'0 0.0
2018-Jun-14 06:00N 53°27' W 003°01'0 0.0
2018-Jun-14 05:30N 53°27' W 003°01'0 0.0
2018-Jun-14 05:00N 53°27' W 003°01'0 0.9
2018-Jun-14 04:30N 53°27' W 003°01'2 4.4
2018-Jun-14 04:00N 53°28' W 003°04'611.6
2018-Jun-14 03:30N 53°31' W 003°12'714.4
2018-Jun-14 03:00N 53°31' W 003°25'713.8
2018-Jun-14 02:30N 53°31' W 003°36'713.4
2018-Jun-14 02:00N 53°32' W 003°47'713.1
2018-Jun-14 01:30N 53°33' W 003°58'77 7.9
2018-Jun-13 15:49N 53°20' W 006°05'1416.2
2018-Jun-13 14:57N 53°26' W 005°43'916.3
2018-Jun-13 14:22N 53°28' W 005°28'4818.3
2018-Jun-13 11:46N 53°36' W 004°08'520.3
2018-Jun-13 11:30N 53°35' W 003°59'1019.4
2018-Jun-13 11:00N 53°34' W 003°43'919.1
2018-Jun-13 10:30N 53°33' W 003°27'918.2
2018-Jun-13 10:00N 53°31' W 003°12'815.4
2018-Jun-13 09:30N 53°27' W 003°02'0 0.7
2018-Jun-13 09:00N 53°27' W 003°01'0 0.7
2018-Jun-13 08:30N 53°27' W 003°01'0 0.0
2018-Jun-13 08:00N 53°27' W 003°01'0 0.0
2018-Jun-13 07:30N 53°27' W 003°01'0 0.0
2018-Jun-13 06:56N 53°27' W 003°01'0 0.0
2018-Jun-13 06:29N 53°27' W 003°01'0 0.0
2018-Jun-13 05:59N 53°27' W 003°01'0 0.0
2018-Jun-13 05:29N 53°27' W 003°01'0 0.0
2018-Jun-13 04:59N 53°27' W 003°01'0 0.0
2018-Jun-13 04:28N 53°27' W 003°01'  
Track history (hours):
 
Tides and Currents Weather Stations Pressure Air Temp Water Temp Dewpoint Dewpoint Depression Visibility Wind Speed Wind Dir Waves Ship Positions

Norbank

Operator: P & O Ferries

Last reported at 2018-Jun-23 04:25 UTC. Time now 2018-Jun-23 04:45 UTC.
Position N 53°27' W 003°01'.

Length 167 m; draft 5.4 m.

Type: Ship (hazmat cat A). MMSI: 246213000.

Date/timePositionNaut miles runAvg speedWind from/ knotsBaromVisibWave heightAir tempDewpointWater temp
2018-Jun-23 04:25N 53°27' W 003°01'0 0.0
2018-Jun-23 03:58N 53°27' W 003°01'0 0.8
2018-Jun-23 03:31N 53°27' W 003°01'0 0.5
2018-Jun-23 03:01N 53°27' W 003°01'5 9.5
2018-Jun-23 02:31N 53°30' W 003°06'713.3
2018-Jun-23 02:00N 53°31' W 003°18'918.6
2018-Jun-23 01:30N 53°31' W 003°33'917.9
2018-Jun-23 01:00N 53°32' W 003°48'917.5
2018-Jun-23 00:30N 53°33' W 004°03'816.7
2018-Jun-23 00:00N 53°35' W 004°16'1017.4
2018-Jun-22 23:25N 53°36' W 004°33'918.0
2018-Jun-22 22:57N 53°34' W 004°48'48 6.5
2018-Jun-22 15:31N 53°20' W 006°05'014.7
2018-Jun-22 15:30N 53°20' W 006°05'815.9
2018-Jun-22 14:59N 53°24' W 005°52'916.7
2018-Jun-22 14:28N 53°26' W 005°38'817.4
2018-Jun-22 14:00N 53°28' W 005°25'6118.3
2018-Jun-22 10:42N 53°33' W 003°43'420.4
2018-Jun-22 10:30N 53°33' W 003°37'1020.1
2018-Jun-22 10:00N 53°32' W 003°20'917.6
2018-Jun-22 09:30N 53°30' W 003°05'4 7.5
2018-Jun-22 09:00N 53°27' W 003°01'0 0.8
2018-Jun-22 08:29N 53°27' W 003°01'0 0.0
2018-Jun-22 07:58N 53°27' W 003°01'0 0.0
2018-Jun-22 07:28N 53°27' W 003°01'0 0.0
2018-Jun-22 06:55N 53°27' W 003°01'0 0.0
2018-Jun-22 06:25N 53°27' W 003°01'0 0.0
2018-Jun-22 05:57N 53°27' W 003°01'0 0.0
2018-Jun-22 05:30N 53°27' W 003°01'0 0.0
2018-Jun-22 05:00N 53°27' W 003°01'0 0.0
2018-Jun-22 04:30N 53°27' W 003°01'0 0.2
2018-Jun-22 04:00N 53°27' W 003°01'0 0.8
2018-Jun-22 03:30N 53°27' W 003°01'5 9.9
2018-Jun-22 02:57N 53°31' W 003°07'818.3
2018-Jun-22 02:31N 53°31' W 003°21'1019.7
2018-Jun-22 02:00N 53°31' W 003°38'918.1
2018-Jun-22 01:29N 53°31' W 003°53'817.2
2018-Jun-22 01:00N 53°33' W 004°07'5318.0
2018-Jun-21 22:02N 53°26' W 005°36'119.3
2018-Jun-21 21:59N 53°25' W 005°37'17 2.7
2018-Jun-21 15:41N 53°20' W 006°05'315.8
2018-Jun-21 15:29N 53°22' W 005°60'816.5
2018-Jun-21 15:00N 53°25' W 005°48'916.7
2018-Jun-21 14:29N 53°27' W 005°34'5817.9
2018-Jun-21 11:16N 53°35' W 003°58'519.7
2018-Jun-21 11:00N 53°34' W 003°49'1019.7
2018-Jun-21 10:30N 53°33' W 003°33'1019.5
2018-Jun-21 09:59N 53°32' W 003°16'816.6
2018-Jun-21 09:30N 53°28' W 003°04'2 4.0
2018-Jun-21 09:00N 53°27' W 003°01'0 0.8
2018-Jun-21 08:30N 53°27' W 003°01'0 0.0
2018-Jun-21 08:00N 53°27' W 003°01'0 0.0
2018-Jun-21 07:30N 53°27' W 003°01'0 0.0
2018-Jun-21 07:00N 53°27' W 003°01'0 0.0
2018-Jun-21 06:28N 53°27' W 003°01'0 0.0
2018-Jun-21 06:00N 53°27' W 003°01'0 0.0
2018-Jun-21 05:24N 53°27' W 003°01'0 0.0
2018-Jun-21 05:00N 53°27' W 003°01'0 0.0
2018-Jun-21 04:27N 53°27' W 003°01'0 0.7
2018-Jun-21 04:00N 53°27' W 003°01'0 0.6
2018-Jun-21 03:30N 53°27' W 003°01'815.0
2018-Jun-21 03:00N 53°31' W 003°11'919.0
2018-Jun-21 02:30N 53°31' W 003°27'917.7
2018-Jun-21 02:00N 53°31' W 003°42'918.2
2018-Jun-21 01:30N 53°33' W 003°57'1018.6
2018-Jun-21 00:59N 53°35' W 004°13'71 7.9
2018-Jun-20 15:57N 53°21' W 006°10'715.1
2018-Jun-20 15:29N 53°22' W 005°58'1018.9
2018-Jun-20 14:58N 53°26' W 005°43'1018.9
2018-Jun-20 14:27N 53°28' W 005°27'6118.7
2018-Jun-20 11:11N 53°34' W 003°45'420.3
2018-Jun-20 11:00N 53°34' W 003°39'1020.2
2018-Jun-20 10:31N 53°33' W 003°22'816.9
2018-Jun-20 10:00N 53°32' W 003°08'612.1
2018-Jun-20 09:31N 53°27' W 003°01'0 0.1
2018-Jun-20 09:00N 53°27' W 003°01'0 0.7
2018-Jun-20 08:29N 53°27' W 003°01'0 0.0
2018-Jun-20 07:59N 53°27' W 003°01'0 0.0
2018-Jun-20 07:28N 53°27' W 003°01'0 0.0
2018-Jun-20 06:55N 53°27' W 003°01'0 0.0
2018-Jun-20 06:28N 53°27' W 003°01'0 0.0
2018-Jun-20 05:58N 53°27' W 003°01'0 0.0
2018-Jun-20 05:28N 53°27' W 003°01'0 0.0
2018-Jun-20 05:00N 53°27' W 003°01'0 0.0
2018-Jun-20 04:30N 53°27' W 003°01'0 0.2
2018-Jun-20 04:00N 53°27' W 003°01'1 1.2
2018-Jun-20 03:30N 53°27' W 003°01'714.0
2018-Jun-20 03:00N 53°32' W 003°09'1019.2
2018-Jun-20 02:30N 53°31' W 003°25'918.2
2018-Jun-20 02:00N 53°31' W 003°41'918.2
2018-Jun-20 01:30N 53°33' W 003°56'2 0.1
2018-Jun-19 11:55N 53°34' W 003°57'817.7
2018-Jun-19 11:29N 53°34' W 003°44'918.2
2018-Jun-19 11:00N 53°33' W 003°30'918.2
2018-Jun-19 10:30N 53°31' W 003°14'613.0
2018-Jun-19 10:00N 53°29' W 003°04'3 5.2
2018-Jun-19 09:30N 53°27' W 003°01'0 0.8
2018-Jun-19 09:00N 53°27' W 003°01'0 0.0
2018-Jun-19 08:22N 53°27' W 003°01'0 0.0
2018-Jun-19 08:00N 53°27' W 003°01'0 0.0
2018-Jun-19 07:30N 53°27' W 003°01'0 0.0
2018-Jun-19 07:00N 53°27' W 003°01'0 0.0
2018-Jun-19 06:30N 53°27' W 003°01'0 0.0
2018-Jun-19 06:00N 53°27' W 003°01'0 0.0
2018-Jun-19 05:29N 53°27' W 003°01'0 0.0
2018-Jun-19 04:59N 53°27' W 003°01'0 0.0
2018-Jun-19 04:30N 53°27' W 003°01'0 1.0
2018-Jun-19 04:00N 53°27' W 003°01'1 2.8
2018-Jun-19 03:30N 53°28' W 003°03'714.4
2018-Jun-19 03:00N 53°31' W 003°14'815.4
2018-Jun-19 02:30N 53°31' W 003°27'815.6
2018-Jun-19 02:00N 53°30' W 003°40'713.4
2018-Jun-19 01:30N 53°32' W 003°51'612.7
2018-Jun-19 01:00N 53°33' W 004°02'713.3
2018-Jun-19 00:30N 53°34' W 004°13'6817.2
2018-Jun-18 20:32N 53°20' W 006°04'3 0.2
2018-Jun-18 03:43N 53°21' W 006°10'313.6
2018-Jun-18 03:30N 53°20' W 006°05'918.0
2018-Jun-18 03:00N 53°23' W 005°51'1018.4
2018-Jun-18 02:26N 53°27' W 005°34'6317.1
2018-Jun-17 22:45N 53°34' W 003°49'417.0
2018-Jun-17 22:30N 53°34' W 003°42'917.3
2018-Jun-17 22:00N 53°33' W 003°27'816.7
2018-Jun-17 21:30N 53°31' W 003°13'612.7
2018-Jun-17 21:00N 53°29' W 003°04'2 4.5
2018-Jun-17 20:30N 53°27' W 003°01'0 0.2
2018-Jun-17 20:00N 53°27' W 003°01'0 0.7
2018-Jun-17 19:27N 53°27' W 003°01'0 0.0
2018-Jun-17 19:00N 53°27' W 003°01'0 0.0
2018-Jun-17 18:23N 53°27' W 003°01'0 0.0
2018-Jun-17 17:59N 53°27' W 003°01'0 0.0
2018-Jun-17 17:29N 53°27' W 003°01'0 0.0
2018-Jun-17 16:59N 53°27' W 003°01'0 0.0
2018-Jun-17 16:28N 53°27' W 003°01'0 0.0
2018-Jun-17 15:58N 53°27' W 003°01'0 0.0
2018-Jun-17 15:28N 53°27' W 003°01'0 0.0
2018-Jun-17 14:55N 53°27' W 003°01'0 0.0
2018-Jun-17 14:28N 53°27' W 003°01'0 0.0
2018-Jun-17 14:00N 53°27' W 003°01'0 0.0
2018-Jun-17 13:30N 53°27' W 003°01'0 0.0
2018-Jun-17 12:57N 53°27' W 003°01'0 0.0
2018-Jun-17 12:30N 53°27' W 003°01'0 0.0
2018-Jun-17 12:00N 53°27' W 003°01'0 0.0
2018-Jun-17 11:29N 53°27' W 003°01'0 0.0
2018-Jun-17 10:59N 53°27' W 003°01'0 0.0
2018-Jun-17 10:29N 53°27' W 003°01'0 0.0
2018-Jun-17 09:59N 53°27' W 003°01'0 0.0
2018-Jun-17 09:28N 53°27' W 003°01'0 0.0
2018-Jun-17 08:52N 53°27' W 003°01'0 0.0
2018-Jun-17 08:28N 53°27' W 003°01'0 0.0
2018-Jun-17 07:58N 53°27' W 003°01'0 0.0
2018-Jun-17 07:25N 53°27' W 003°01'0 0.0
2018-Jun-17 07:00N 53°27' W 003°01'0 0.0
2018-Jun-17 06:27N 53°27' W 003°01'0 0.0
2018-Jun-17 06:00N 53°27' W 003°01'0 0.0
2018-Jun-17 05:30N 53°27' W 003°01'0 0.0
2018-Jun-17 05:00N 53°27' W 003°01'0 0.9
2018-Jun-17 04:30N 53°27' W 003°01'2 4.4
2018-Jun-17 04:00N 53°28' W 003°04'713.1
2018-Jun-17 03:30N 53°31' W 003°14'816.2
2018-Jun-17 03:00N 53°31' W 003°28'815.3
2018-Jun-17 02:30N 53°31' W 003°40'815.6
2018-Jun-17 02:00N 53°32' W 003°53'815.6
2018-Jun-17 01:30N 53°33' W 004°06'5416.2
2018-Jun-16 22:09N 53°26' W 005°37'317.8
2018-Jun-16 21:58N 53°25' W 005°42'1117.8
2018-Jun-16 21:21N 53°21' W 005°59'1 0.2
2018-Jun-16 15:35N 53°21' W 006°02'8218.3
2018-Jun-16 11:08N 53°34' W 003°46'217.6
2018-Jun-16 11:00N 53°34' W 003°43'817.2
2018-Jun-16 10:30N 53°33' W 003°28'917.4
2018-Jun-16 10:00N 53°31' W 003°14'713.9
2018-Jun-16 09:30N 53°28' W 003°03'2 3.6
2018-Jun-16 09:00N 53°27' W 003°01'0 0.7
2018-Jun-16 08:30N 53°27' W 003°01'0 0.3
2018-Jun-16 08:00N 53°27' W 003°01'0 0.0
2018-Jun-16 07:30N 53°27' W 003°01'0 0.0
2018-Jun-16 07:00N 53°27' W 003°01'0 0.0
2018-Jun-16 06:30N 53°27' W 003°01'0 0.0
2018-Jun-16 06:00N 53°27' W 003°01'0 0.0
2018-Jun-16 05:29N 53°27' W 003°01'0 0.0
2018-Jun-16 04:56N 53°27' W 003°01'0 0.0
2018-Jun-16 04:29N 53°27' W 003°01'0 0.9
2018-Jun-16 04:00N 53°27' W 003°01'3 5.5
2018-Jun-16 03:30N 53°29' W 003°05'613.2
2018-Jun-16 03:00N 53°31' W 003°15'816.5
2018-Jun-16 02:30N 53°31' W 003°28'815.2
2018-Jun-16 02:01N 53°31' W 003°41'816.3
2018-Jun-16 01:30N 53°32' W 003°55'6017.4
2018-Jun-15 22:02N 53°23' W 005°35'819.5
2018-Jun-15 21:36N 53°21' W 005°49'519.1
2018-Jun-15 21:21N 53°20' W 005°57'8 1.5
2018-Jun-15 16:02N 53°21' W 006°10'312.4
2018-Jun-15 15:47N 53°20' W 006°05'516.2
2018-Jun-15 15:28N 53°23' W 005°57'918.3
2018-Jun-15 15:00N 53°25' W 005°43'1018.7
2018-Jun-15 14:29N 53°28' W 005°28'6219.3
2018-Jun-15 11:15N 53°34' W 003°43'418.2
2018-Jun-15 11:01N 53°33' W 003°36'918.1
2018-Jun-15 10:30N 53°32' W 003°21'917.1
2018-Jun-15 10:00N 53°31' W 003°06'510.2
2018-Jun-15 09:30N 53°27' W 003°01'0 0.0
2018-Jun-15 09:00N 53°27' W 003°01'0 0.8
2018-Jun-15 08:29N 53°27' W 003°01'0 0.0
2018-Jun-15 07:59N 53°27' W 003°01'0 0.0
2018-Jun-15 07:29N 53°27' W 003°01'0 0.0
2018-Jun-15 06:59N 53°27' W 003°01'0 0.0
2018-Jun-15 06:22N 53°27' W 003°01'0 0.0
2018-Jun-15 05:58N 53°27' W 003°01'0 0.0
2018-Jun-15 05:28N 53°27' W 003°01'0 0.0
2018-Jun-15 04:58N 53°27' W 003°01'0 0.0
2018-Jun-15 04:30N 53°27' W 003°01'0 0.9
2018-Jun-15 04:00N 53°27' W 003°01'2 3.1
2018-Jun-15 03:30N 53°28' W 003°03'612.4
2018-Jun-15 03:00N 53°31' W 003°12'815.5
2018-Jun-15 02:30N 53°31' W 003°25'816.0
2018-Jun-15 02:00N 53°31' W 003°39'816.2
2018-Jun-15 01:30N 53°32' W 003°52'816.5
2018-Jun-15 01:00N 53°33' W 004°06'72 7.8
2018-Jun-14 15:43N 53°20' W 006°05'418.0
2018-Jun-14 15:30N 53°22' W 005°58'1019.1
2018-Jun-14 15:00N 53°25' W 005°43'1019.3
2018-Jun-14 14:29N 53°28' W 005°27'6220.1
2018-Jun-14 11:24N 53°34' W 003°43'818.4
2018-Jun-14 10:57N 53°33' W 003°29'817.9
2018-Jun-14 10:30N 53°31' W 003°16'715.0
2018-Jun-14 10:00N 53°29' W 003°05'3 5.5
2018-Jun-14 09:30N 53°27' W 003°01'0 0.9
2018-Jun-14 09:00N 53°27' W 003°01'0 0.0
2018-Jun-14 08:13N 53°27' W 003°01'0 0.0
2018-Jun-14 07:58N 53°27' W 003°01'0 0.0
2018-Jun-14 07:28N 53°27' W 003°01'0 0.0
2018-Jun-14 07:00N 53°27' W 003°01'0 0.0
2018-Jun-14 06:27N 53°27' W 003°01'0 0.0
2018-Jun-14 06:00N 53°27' W 003°01'0 0.0
2018-Jun-14 05:30N 53°27' W 003°01'0 0.0
2018-Jun-14 05:00N 53°27' W 003°01'0 0.9
2018-Jun-14 04:30N 53°27' W 003°01'2 4.4
2018-Jun-14 04:00N 53°28' W 003°04'611.6
2018-Jun-14 03:30N 53°31' W 003°12'714.4
2018-Jun-14 03:00N 53°31' W 003°25'713.8
2018-Jun-14 02:30N 53°31' W 003°36'713.4
2018-Jun-14 02:00N 53°32' W 003°47'713.1
2018-Jun-14 01:30N 53°33' W 003°58'77 7.9
2018-Jun-13 15:49N 53°20' W 006°05'1416.2
2018-Jun-13 14:57N 53°26' W 005°43'916.3
2018-Jun-13 14:22N 53°28' W 005°28'4818.3
2018-Jun-13 11:46N 53°36' W 004°08'520.3
2018-Jun-13 11:30N 53°35' W 003°59'1019.4
2018-Jun-13 11:00N 53°34' W 003°43'919.1
2018-Jun-13 10:30N 53°33' W 003°27'918.2
2018-Jun-13 10:00N 53°31' W 003°12'815.4
2018-Jun-13 09:30N 53°27' W 003°02'0 0.7
2018-Jun-13 09:00N 53°27' W 003°01'0 0.7
2018-Jun-13 08:30N 53°27' W 003°01'0 0.0
2018-Jun-13 08:00N 53°27' W 003°01'0 0.0
2018-Jun-13 07:30N 53°27' W 003°01'0 0.0
2018-Jun-13 06:56N 53°27' W 003°01'0 0.0
2018-Jun-13 06:29N 53°27' W 003°01'0 0.0
2018-Jun-13 05:59N 53°27' W 003°01'0 0.0
2018-Jun-13 05:29N 53°27' W 003°01'0 0.0
2018-Jun-13 04:59N 53°27' W 003°01'0 0.0
2018-Jun-13 04:28N 53°27' W 003°01'  

Dump ship's entire track history